createdAt,value
2022-12-31T00:00:47.940Z,16.90
2022-12-31T00:01:48.036Z,16.88
2022-12-31T00:02:47.960Z,16.81
2022-12-31T00:03:47.932Z,16.77
2022-12-31T00:04:47.886Z,16.69
2022-12-31T00:05:47.860Z,16.70
2022-12-31T00:06:47.839Z,16.51
2022-12-31T00:07:47.820Z,16.51
2022-12-31T00:08:47.908Z,16.51
2022-12-31T00:09:47.824Z,16.63
2022-12-31T00:10:47.806Z,16.66
2022-12-31T00:11:47.848Z,16.63
2022-12-31T00:12:47.808Z,16.63
2022-12-31T00:13:47.754Z,16.55
2022-12-31T00:14:47.797Z,16.60
2022-12-31T00:15:47.739Z,16.51
2022-12-31T00:16:47.766Z,16.52
2022-12-31T00:17:47.724Z,16.50
2022-12-31T00:18:47.733Z,16.54
2022-12-31T00:19:47.730Z,16.72
2022-12-31T00:20:47.692Z,16.77
2022-12-31T00:21:47.675Z,16.75
2022-12-31T00:22:47.712Z,16.65
2022-12-31T00:23:47.685Z,16.48
2022-12-31T00:24:47.669Z,16.33
2022-12-31T00:25:47.623Z,16.37
2022-12-31T00:26:47.613Z,16.29
2022-12-31T00:27:47.618Z,16.29
2022-12-31T00:28:47.651Z,16.40
2022-12-31T00:29:47.595Z,16.37
2022-12-31T00:30:47.594Z,16.50
2022-12-31T00:31:47.546Z,16.48
2022-12-31T00:32:47.552Z,16.51
2022-12-31T00:33:47.543Z,16.48
2022-12-31T00:34:47.550Z,16.50
2022-12-31T00:35:47.499Z,16.59
2022-12-31T00:36:47.521Z,16.60
2022-12-31T00:37:47.482Z,16.60
2022-12-31T00:38:47.467Z,16.63
2022-12-31T00:39:47.475Z,16.63
2022-12-31T00:40:47.449Z,16.60
2022-12-31T00:41:47.433Z,16.59
2022-12-31T00:42:47.440Z,16.60
2022-12-31T00:43:47.431Z,16.70
2022-12-31T00:44:47.534Z,16.62
2022-12-31T00:45:47.449Z,16.65
2022-12-31T00:46:47.392Z,16.60
2022-12-31T00:47:47.382Z,16.62
2022-12-31T00:48:47.432Z,16.67
2022-12-31T00:49:47.421Z,16.65
2022-12-31T00:50:47.344Z,16.59
2022-12-31T00:51:47.339Z,16.51
2022-12-31T00:52:47.317Z,16.60
2022-12-31T00:53:47.315Z,16.62
2022-12-31T00:54:47.349Z,16.60
2022-12-31T00:55:47.342Z,16.60
2022-12-31T00:56:47.296Z,16.62
2022-12-31T00:57:47.297Z,16.55
2022-12-31T00:58:47.267Z,16.69
2022-12-31T00:59:47.239Z,16.82
2022-12-31T01:00:47.239Z,16.75
2022-12-31T01:01:47.368Z,16.73
2022-12-31T01:02:47.274Z,16.67
2022-12-31T01:03:47.237Z,16.63
2022-12-31T01:04:47.250Z,16.67
2022-12-31T01:05:47.194Z,16.72
2022-12-31T01:06:47.161Z,16.66
2022-12-31T01:07:47.158Z,16.82
2022-12-31T01:08:47.165Z,16.85
2022-12-31T01:09:47.155Z,16.90
2022-12-31T01:10:47.145Z,17.05
2022-12-31T01:11:47.124Z,17.15
2022-12-31T01:12:47.096Z,17.22
2022-12-31T01:13:47.082Z,17.14
2022-12-31T01:14:47.098Z,17.10
2022-12-31T01:15:47.086Z,17.14
2022-12-31T01:16:47.054Z,17.14
2022-12-31T01:17:47.046Z,16.98
2022-12-31T01:18:47.064Z,17.05
2022-12-31T01:19:47.067Z,16.87
2022-12-31T01:20:47.064Z,16.88
2022-12-31T01:21:47.012Z,16.85
2022-12-31T01:22:46.992Z,16.77
2022-12-31T01:23:46.963Z,16.63
2022-12-31T01:24:46.991Z,16.70
2022-12-31T01:25:46.948Z,16.67
2022-12-31T01:26:46.961Z,16.60
2022-12-31T01:27:46.933Z,16.63
2022-12-31T01:28:47.038Z,16.70
2022-12-31T01:29:46.922Z,16.65
2022-12-31T01:30:46.982Z,16.63
2022-12-31T01:31:46.935Z,16.65
2022-12-31T01:32:46.891Z,16.75
2022-12-31T01:33:46.865Z,16.82
2022-12-31T01:34:46.901Z,16.78
2022-12-31T01:35:46.856Z,16.77
2022-12-31T01:36:46.834Z,16.80
2022-12-31T01:37:46.961Z,16.77
2022-12-31T01:38:46.802Z,16.81
2022-12-31T01:39:46.844Z,16.69
2022-12-31T01:40:46.811Z,16.72
2022-12-31T01:41:46.788Z,16.70
2022-12-31T01:42:46.755Z,16.69
2022-12-31T01:43:46.770Z,16.77
2022-12-31T01:44:46.888Z,16.73
2022-12-31T01:45:46.754Z,16.80
2022-12-31T01:46:46.777Z,16.82
2022-12-31T01:47:46.728Z,16.72
2022-12-31T01:48:46.696Z,16.77
2022-12-31T01:49:46.703Z,16.87
2022-12-31T01:50:46.700Z,16.69
2022-12-31T01:51:46.653Z,16.80
2022-12-31T01:52:46.648Z,16.70
2022-12-31T01:53:46.644Z,16.72
2022-12-31T01:54:46.682Z,16.70
2022-12-31T01:55:46.627Z,16.80
2022-12-31T01:56:46.724Z,16.75
2022-12-31T01:57:46.600Z,16.77
2022-12-31T01:58:46.606Z,16.73
2022-12-31T01:59:46.665Z,16.78
2022-12-31T02:00:46.601Z,16.67
2022-12-31T02:01:46.786Z,16.70
2022-12-31T02:02:46.612Z,16.66
2022-12-31T02:03:46.600Z,16.72
2022-12-31T02:04:46.543Z,16.63
2022-12-31T02:05:46.503Z,16.57
2022-12-31T02:06:46.520Z,16.45
2022-12-31T02:07:46.496Z,16.60
2022-12-31T02:08:46.475Z,16.55
2022-12-31T02:09:46.508Z,16.63
2022-12-31T02:10:46.457Z,16.62
2022-12-31T02:11:46.453Z,16.54
2022-12-31T02:12:46.442Z,16.59
2022-12-31T02:13:46.419Z,16.54
2022-12-31T02:14:46.424Z,16.45
2022-12-31T02:15:46.450Z,16.34
2022-12-31T02:16:46.383Z,16.41
2022-12-31T02:17:46.372Z,16.34
2022-12-31T02:18:46.380Z,16.34
2022-12-31T02:19:46.488Z,16.25
2022-12-31T02:20:46.387Z,16.16
2022-12-31T02:21:46.344Z,16.17
2022-12-31T02:22:46.308Z,16.04
2022-12-31T02:23:46.312Z,16.06
2022-12-31T02:24:46.420Z,16.01
2022-12-31T02:25:46.321Z,16.06
2022-12-31T02:26:46.315Z,16.08
2022-12-31T02:27:46.280Z,16.10
2022-12-31T02:28:46.260Z,16.11
2022-12-31T02:29:46.369Z,16.18
2022-12-31T02:30:46.225Z,16.16
2022-12-31T02:31:46.260Z,16.04
2022-12-31T02:32:46.271Z,16.10
2022-12-31T02:33:46.197Z,16.08
2022-12-31T02:34:46.211Z,16.06
2022-12-31T02:35:46.184Z,16.18
2022-12-31T02:36:46.173Z,16.07
2022-12-31T02:37:46.165Z,16.06
2022-12-31T02:38:46.235Z,16.11
2022-12-31T02:39:46.174Z,16.04
2022-12-31T02:40:46.129Z,16.08
2022-12-31T02:41:46.149Z,16.06
2022-12-31T02:42:51.546Z,16.10
2022-12-31T02:43:47.109Z,15.92
2022-12-31T02:44:46.155Z,16.01
2022-12-31T02:45:46.106Z,15.98
2022-12-31T02:46:46.103Z,15.99
2022-12-31T02:47:46.066Z,15.96
2022-12-31T02:48:46.043Z,15.93
2022-12-31T02:49:46.121Z,15.93
2022-12-31T02:50:46.028Z,15.98
2022-12-31T02:51:46.023Z,15.96
2022-12-31T02:52:45.978Z,15.93
2022-12-31T02:53:45.963Z,15.88
2022-12-31T02:54:46.109Z,15.88
2022-12-31T02:55:45.993Z,15.92
2022-12-31T02:56:45.942Z,15.92
2022-12-31T02:57:45.949Z,15.76
2022-12-31T02:58:45.911Z,15.86
2022-12-31T02:59:45.917Z,15.85
2022-12-31T03:00:45.922Z,15.76
2022-12-31T03:01:46.049Z,15.59
2022-12-31T03:02:45.947Z,15.66
2022-12-31T03:03:45.855Z,15.67
2022-12-31T03:04:45.885Z,15.56
2022-12-31T03:05:45.851Z,15.56
2022-12-31T03:06:45.958Z,15.60
2022-12-31T03:07:45.813Z,15.62
2022-12-31T03:08:45.824Z,15.53
2022-12-31T03:09:45.953Z,15.55
2022-12-31T03:10:45.811Z,15.51
2022-12-31T03:11:45.768Z,15.52
2022-12-31T03:12:45.843Z,15.58
2022-12-31T03:13:45.785Z,15.51
2022-12-31T03:14:45.772Z,15.48
2022-12-31T03:15:45.741Z,15.41
2022-12-31T03:16:45.710Z,15.35
2022-12-31T03:17:45.767Z,15.23
2022-12-31T03:18:45.693Z,15.25
2022-12-31T03:19:45.699Z,15.25
2022-12-31T03:20:45.675Z,15.11
2022-12-31T03:21:45.666Z,15.04
2022-12-31T03:22:45.681Z,14.97
2022-12-31T03:23:45.643Z,14.90
2022-12-31T03:24:45.636Z,14.87
2022-12-31T03:25:45.643Z,14.72
2022-12-31T03:26:45.643Z,14.69
2022-12-31T03:27:45.598Z,14.49
2022-12-31T03:28:45.585Z,14.49
2022-12-31T03:29:45.656Z,14.38
2022-12-31T03:30:45.595Z,14.39
2022-12-31T03:31:45.627Z,14.27
2022-12-31T03:32:45.572Z,14.24
2022-12-31T03:33:45.535Z,14.16
2022-12-31T03:34:45.567Z,14.13
2022-12-31T03:35:45.527Z,14.12
2022-12-31T03:36:45.625Z,14.06
2022-12-31T03:37:45.532Z,13.91
2022-12-31T03:38:48.575Z,13.87
2022-12-31T03:39:46.476Z,13.88
2022-12-31T03:40:45.487Z,13.79
2022-12-31T03:41:45.519Z,13.73
2022-12-31T03:42:45.469Z,13.68
2022-12-31T03:43:45.468Z,13.61
2022-12-31T03:44:45.446Z,13.62
2022-12-31T03:45:45.514Z,13.54
2022-12-31T03:46:45.402Z,13.38
2022-12-31T03:47:45.374Z,13.36
2022-12-31T03:48:45.429Z,13.44
2022-12-31T03:49:45.373Z,13.46
2022-12-31T03:50:45.344Z,13.54
2022-12-31T03:51:45.416Z,13.46
2022-12-31T03:52:45.341Z,13.55
2022-12-31T03:53:45.332Z,13.59
2022-12-31T03:54:45.325Z,13.68
2022-12-31T03:55:45.292Z,13.57
2022-12-31T03:56:45.299Z,13.63
2022-12-31T03:57:45.357Z,13.76
2022-12-31T03:58:45.271Z,13.90
2022-12-31T03:59:45.265Z,13.87
2022-12-31T04:00:45.303Z,13.88
2022-12-31T04:01:45.373Z,13.91
2022-12-31T04:02:45.359Z,13.99
2022-12-31T04:03:45.225Z,13.87
2022-12-31T04:04:45.211Z,13.91
2022-12-31T04:05:45.217Z,13.87
2022-12-31T04:06:45.163Z,13.80
2022-12-31T04:07:45.172Z,13.73
2022-12-31T04:08:45.166Z,13.76
2022-12-31T04:09:45.151Z,13.91
2022-12-31T04:10:45.129Z,13.96
2022-12-31T04:11:45.115Z,13.93
2022-12-31T04:12:45.118Z,13.94
2022-12-31T04:13:45.100Z,13.80
2022-12-31T04:14:45.132Z,13.75
2022-12-31T04:15:45.093Z,13.73
2022-12-31T04:16:45.174Z,13.65
2022-12-31T04:17:45.138Z,13.50
2022-12-31T04:18:45.065Z,13.36
2022-12-31T04:19:45.031Z,13.48
2022-12-31T04:20:45.106Z,13.41
2022-12-31T04:21:45.027Z,13.41
2022-12-31T04:22:45.021Z,13.32
2022-12-31T04:23:45.002Z,13.27
2022-12-31T04:24:45.010Z,13.25
2022-12-31T04:25:44.972Z,13.28
2022-12-31T04:26:45.122Z,13.32
2022-12-31T04:27:44.972Z,13.39
2022-12-31T04:28:44.952Z,13.61
2022-12-31T04:29:44.940Z,13.63
2022-12-31T04:30:44.907Z,13.53
2022-12-31T04:31:44.940Z,13.38
2022-12-31T04:32:44.898Z,13.36
2022-12-31T04:33:44.907Z,13.38
2022-12-31T04:34:44.920Z,13.39
2022-12-31T04:35:44.876Z,13.62
2022-12-31T04:36:44.851Z,13.71
2022-12-31T04:37:44.865Z,13.65
2022-12-31T04:38:44.826Z,13.59
2022-12-31T04:39:44.805Z,13.57
2022-12-31T04:40:44.812Z,13.55
2022-12-31T04:41:44.801Z,13.38
2022-12-31T04:42:44.836Z,13.35
2022-12-31T04:43:44.789Z,13.29
2022-12-31T04:44:44.750Z,13.21
2022-12-31T04:45:44.830Z,13.03
2022-12-31T04:46:44.736Z,13.19
2022-12-31T04:47:44.752Z,13.32
2022-12-31T04:48:44.738Z,13.38
2022-12-31T04:49:44.722Z,13.66
2022-12-31T04:50:44.687Z,13.98
2022-12-31T04:51:44.709Z,14.31
2022-12-31T04:52:44.678Z,14.57
2022-12-31T04:53:44.672Z,14.75
2022-12-31T04:54:44.690Z,15.00
2022-12-31T04:55:44.697Z,15.34
2022-12-31T04:56:44.643Z,15.53
2022-12-31T04:57:44.645Z,15.60
2022-12-31T04:58:44.612Z,15.68
2022-12-31T04:59:44.674Z,15.66
2022-12-31T05:00:44.586Z,15.67
2022-12-31T05:01:44.660Z,15.74
2022-12-31T05:02:44.725Z,15.70
2022-12-31T05:03:44.551Z,15.84
2022-12-31T05:04:44.673Z,15.88
2022-12-31T05:05:44.560Z,15.84
2022-12-31T05:06:44.576Z,15.88
2022-12-31T05:07:44.506Z,15.86
2022-12-31T05:08:44.512Z,15.88
2022-12-31T05:09:44.545Z,15.89
2022-12-31T05:10:44.475Z,15.91
2022-12-31T05:11:44.471Z,15.84
2022-12-31T05:12:44.498Z,15.99
2022-12-31T05:13:44.471Z,16.07
2022-12-31T05:14:44.532Z,16.04
2022-12-31T05:15:44.425Z,15.98
2022-12-31T05:16:44.487Z,15.99
2022-12-31T05:17:44.408Z,16.04
2022-12-31T05:18:44.389Z,16.13
2022-12-31T05:19:44.433Z,16.01
2022-12-31T05:20:44.376Z,15.98
2022-12-31T05:21:44.403Z,15.92
2022-12-31T05:22:44.346Z,15.93
2022-12-31T05:23:44.335Z,16.03
2022-12-31T05:24:44.341Z,15.98
2022-12-31T05:25:44.497Z,15.93
2022-12-31T05:26:44.339Z,15.85
2022-12-31T05:27:44.307Z,15.78
2022-12-31T05:28:44.310Z,15.73
2022-12-31T05:29:44.323Z,15.73
2022-12-31T05:30:44.347Z,15.74
2022-12-31T05:31:44.302Z,15.71
2022-12-31T05:32:44.241Z,15.67
2022-12-31T05:33:44.235Z,15.71
2022-12-31T05:34:44.253Z,15.53
2022-12-31T05:35:44.196Z,15.48
2022-12-31T05:36:44.265Z,15.48
2022-12-31T05:37:44.189Z,15.48
2022-12-31T05:38:44.169Z,15.41
2022-12-31T05:39:44.187Z,15.33
2022-12-31T05:40:44.265Z,15.31
2022-12-31T05:41:44.153Z,15.27
2022-12-31T05:42:44.140Z,15.18
2022-12-31T05:43:44.127Z,15.12
2022-12-31T05:44:44.127Z,14.97
2022-12-31T05:45:44.214Z,15.00
2022-12-31T05:46:44.098Z,14.82
2022-12-31T05:47:44.085Z,14.86
2022-12-31T05:48:44.084Z,14.72
2022-12-31T05:49:44.093Z,14.69
2022-12-31T05:50:44.075Z,14.66
2022-12-31T05:51:44.030Z,14.66
2022-12-31T05:52:47.390Z,14.69
2022-12-31T05:53:44.018Z,14.78
2022-12-31T05:54:44.008Z,14.87
2022-12-31T05:55:43.992Z,14.93
2022-12-31T05:56:43.990Z,14.94
2022-12-31T05:57:44.017Z,14.87
2022-12-31T05:58:43.958Z,14.87
2022-12-31T05:59:43.956Z,14.98
2022-12-31T06:00:43.926Z,15.01
2022-12-31T06:01:43.913Z,15.04
2022-12-31T06:02:43.954Z,14.97
2022-12-31T06:03:43.958Z,15.04
2022-12-31T06:04:43.936Z,15.00
2022-12-31T06:05:43.885Z,15.04
2022-12-31T06:06:43.866Z,15.09
2022-12-31T06:07:43.860Z,15.15
2022-12-31T06:08:43.838Z,15.19
2022-12-31T06:09:43.860Z,15.30
2022-12-31T06:10:43.846Z,15.40
2022-12-31T06:11:43.802Z,15.46
2022-12-31T06:12:43.822Z,15.53
2022-12-31T06:13:43.792Z,15.62
2022-12-31T06:14:45.786Z,15.67
2022-12-31T06:15:43.808Z,15.73
2022-12-31T06:16:43.750Z,15.77
2022-12-31T06:17:43.787Z,15.88
2022-12-31T06:18:43.723Z,15.71
2022-12-31T06:19:43.749Z,15.70
2022-12-31T06:20:43.700Z,15.71
2022-12-31T06:21:43.824Z,15.89
2022-12-31T06:22:43.716Z,15.73
2022-12-31T06:23:43.680Z,15.64
2022-12-31T06:24:43.700Z,15.62
2022-12-31T06:25:43.680Z,15.44
2022-12-31T06:26:43.634Z,15.52
2022-12-31T06:27:43.653Z,15.41
2022-12-31T06:28:43.612Z,15.41
2022-12-31T06:29:43.624Z,15.37
2022-12-31T06:30:43.679Z,15.34
2022-12-31T06:31:43.594Z,15.34
2022-12-31T06:32:43.601Z,15.37
2022-12-31T06:33:43.562Z,15.16
2022-12-31T06:34:43.568Z,15.30
2022-12-31T06:35:43.554Z,15.35
2022-12-31T06:36:43.523Z,15.40
2022-12-31T06:37:43.536Z,15.22
2022-12-31T06:38:43.522Z,15.19
2022-12-31T06:39:43.529Z,15.25
2022-12-31T06:40:43.484Z,15.22
2022-12-31T06:41:43.506Z,15.19
2022-12-31T06:42:43.462Z,15.22
2022-12-31T06:43:43.449Z,15.19
2022-12-31T06:44:43.488Z,15.16
2022-12-31T06:45:43.458Z,15.23
2022-12-31T06:46:43.467Z,15.20
2022-12-31T06:47:43.410Z,15.13
2022-12-31T06:48:43.395Z,15.15
2022-12-31T06:49:43.428Z,15.11
2022-12-31T06:50:43.416Z,15.01
2022-12-31T06:51:43.373Z,15.00
2022-12-31T06:52:43.350Z,15.04
2022-12-31T06:53:43.374Z,15.05
2022-12-31T06:54:43.359Z,14.98
2022-12-31T06:55:43.315Z,15.07
2022-12-31T06:56:43.309Z,15.00
2022-12-31T06:57:43.318Z,14.93
2022-12-31T06:58:43.306Z,14.86
2022-12-31T06:59:43.363Z,14.72
2022-12-31T07:00:43.269Z,14.66
2022-12-31T07:01:43.472Z,14.57
2022-12-31T07:02:43.479Z,14.57
2022-12-31T07:03:43.261Z,14.61
2022-12-31T07:04:43.254Z,14.56
2022-12-31T07:05:43.238Z,14.59
2022-12-31T07:06:43.220Z,14.66
2022-12-31T07:07:43.181Z,14.66
2022-12-31T07:08:43.169Z,14.61
2022-12-31T07:09:43.207Z,14.74
2022-12-31T07:10:43.297Z,14.66
2022-12-31T07:11:43.152Z,14.66
2022-12-31T07:12:43.150Z,14.64
2022-12-31T07:13:43.156Z,14.60
2022-12-31T07:14:43.136Z,14.63
2022-12-31T07:15:43.173Z,14.61
2022-12-31T07:16:43.093Z,14.46
2022-12-31T07:17:43.112Z,14.46
2022-12-31T07:18:43.085Z,14.49
2022-12-31T07:19:43.094Z,14.53
2022-12-31T07:20:43.068Z,14.52
2022-12-31T07:21:43.040Z,14.59
2022-12-31T07:22:43.021Z,14.45
2022-12-31T07:23:43.032Z,14.42
2022-12-31T07:24:43.021Z,14.39
2022-12-31T07:25:42.997Z,14.35
2022-12-31T07:26:42.983Z,14.27
2022-12-31T07:27:42.963Z,14.24
2022-12-31T07:28:42.960Z,14.29
2022-12-31T07:29:43.032Z,14.30
2022-12-31T07:30:42.940Z,14.27
2022-12-31T07:31:42.970Z,14.27
2022-12-31T07:32:42.939Z,14.16
2022-12-31T07:33:42.909Z,14.17
2022-12-31T07:34:43.061Z,14.19
2022-12-31T07:35:43.000Z,14.19
2022-12-31T07:36:42.925Z,14.27
2022-12-31T07:37:42.869Z,14.23
2022-12-31T07:38:42.882Z,14.11
2022-12-31T07:39:42.909Z,14.20
2022-12-31T07:40:42.828Z,14.20
2022-12-31T07:41:42.823Z,14.17
2022-12-31T07:42:42.833Z,14.11
2022-12-31T07:43:42.911Z,14.21
2022-12-31T07:44:42.819Z,14.13
2022-12-31T07:45:42.794Z,14.26
2022-12-31T07:46:42.807Z,14.24
2022-12-31T07:47:42.795Z,14.24
2022-12-31T07:48:42.747Z,14.36
2022-12-31T07:49:42.752Z,14.39
2022-12-31T07:50:42.750Z,14.36
2022-12-31T07:51:42.750Z,14.45
2022-12-31T07:52:42.748Z,14.46
2022-12-31T07:53:42.691Z,14.49
2022-12-31T07:54:42.698Z,14.49
2022-12-31T07:55:42.667Z,14.49
2022-12-31T07:56:42.691Z,14.66
2022-12-31T07:57:42.659Z,14.63
2022-12-31T07:58:42.696Z,14.66
2022-12-31T07:59:42.685Z,14.74
2022-12-31T08:00:42.634Z,14.75
2022-12-31T08:01:42.812Z,14.85
2022-12-31T08:02:42.624Z,14.95
2022-12-31T08:03:42.589Z,14.97
2022-12-31T08:04:42.611Z,15.03
2022-12-31T08:05:42.571Z,15.15
2022-12-31T08:06:42.567Z,15.12
2022-12-31T08:07:42.563Z,15.12
2022-12-31T08:08:42.521Z,15.33
2022-12-31T08:09:42.534Z,15.35
2022-12-31T08:10:42.515Z,15.44
2022-12-31T08:11:42.637Z,15.58
2022-12-31T08:12:42.524Z,15.68
2022-12-31T08:13:42.502Z,15.71
2022-12-31T08:14:42.483Z,15.88
2022-12-31T08:15:42.528Z,15.93
2022-12-31T08:16:42.466Z,15.99
2022-12-31T08:17:42.451Z,16.06
2022-12-31T08:18:42.444Z,16.30
2022-12-31T08:19:42.424Z,16.72
2022-12-31T08:20:42.385Z,17.03
2022-12-31T08:21:42.416Z,17.28
2022-12-31T08:22:42.376Z,17.63
2022-12-31T08:23:42.364Z,17.65
2022-12-31T08:24:42.371Z,17.58
2022-12-31T08:25:42.465Z,17.47
2022-12-31T08:26:42.347Z,17.38
2022-12-31T08:27:42.320Z,17.36
2022-12-31T08:28:42.400Z,17.15
2022-12-31T08:29:42.335Z,16.99
2022-12-31T08:30:42.302Z,16.85
2022-12-31T08:31:42.338Z,16.81
2022-12-31T08:32:42.293Z,16.85
2022-12-31T08:33:42.285Z,16.75
2022-12-31T08:34:42.273Z,16.70
2022-12-31T08:35:42.255Z,16.65
2022-12-31T08:36:42.255Z,16.47
2022-12-31T08:37:42.207Z,16.42
2022-12-31T08:38:42.212Z,16.42
2022-12-31T08:39:42.233Z,16.40
2022-12-31T08:40:42.191Z,16.36
2022-12-31T08:41:43.180Z,16.52
2022-12-31T08:42:42.151Z,16.50
2022-12-31T08:43:42.145Z,16.85
2022-12-31T08:44:42.238Z,17.30
2022-12-31T08:45:42.152Z,17.65
2022-12-31T08:46:42.114Z,18.09
2022-12-31T08:47:42.100Z,18.53
2022-12-31T08:48:42.104Z,18.89
2022-12-31T08:49:42.166Z,19.10
2022-12-31T08:50:42.097Z,19.35
2022-12-31T08:51:42.117Z,19.60
2022-12-31T08:52:42.060Z,19.52
2022-12-31T08:53:42.058Z,19.52
2022-12-31T08:54:42.093Z,19.78
2022-12-31T08:55:42.014Z,19.42
2022-12-31T08:56:44.803Z,19.64
2022-12-31T08:57:42.982Z,19.34
2022-12-31T08:58:41.995Z,19.47
2022-12-31T08:59:42.007Z,19.21
2022-12-31T09:00:42.074Z,19.23
2022-12-31T09:01:42.074Z,19.23
2022-12-31T09:02:47.756Z,18.89
2022-12-31T09:03:42.919Z,18.97
2022-12-31T09:04:42.003Z,19.16
2022-12-31T09:05:41.939Z,19.28
2022-12-31T09:06:41.886Z,19.47
2022-12-31T09:07:41.925Z,19.85
2022-12-31T09:08:41.872Z,19.90
2022-12-31T09:09:41.891Z,19.94
2022-12-31T09:10:41.855Z,19.87
2022-12-31T09:11:41.842Z,20.16
2022-12-31T09:12:41.835Z,20.50
2022-12-31T09:13:41.905Z,20.57
2022-12-31T09:14:41.837Z,20.63
2022-12-31T09:15:41.797Z,20.97
2022-12-31T09:16:41.813Z,21.27
2022-12-31T09:17:41.945Z,21.36
2022-12-31T09:18:41.780Z,21.31
2022-12-31T09:19:41.761Z,21.58
2022-12-31T09:20:43.312Z,21.79
2022-12-31T09:21:41.745Z,21.71
2022-12-31T09:22:41.749Z,21.79
2022-12-31T09:23:41.712Z,22.06
2022-12-31T09:24:41.799Z,22.29
2022-12-31T09:25:41.690Z,22.46
2022-12-31T09:26:41.786Z,22.44
2022-12-31T09:27:41.663Z,22.44
2022-12-31T09:28:41.647Z,22.36
2022-12-31T09:29:41.657Z,22.42
2022-12-31T09:30:41.635Z,22.46
2022-12-31T09:31:41.666Z,22.48
2022-12-31T09:32:41.711Z,22.31
2022-12-31T09:33:41.623Z,22.23
2022-12-31T09:34:41.629Z,22.17
2022-12-31T09:35:41.558Z,22.15
2022-12-31T09:36:41.561Z,22.20
2022-12-31T09:37:41.638Z,22.01
2022-12-31T09:38:41.559Z,21.98
2022-12-31T09:39:41.549Z,21.81
2022-12-31T09:40:41.526Z,21.96
2022-12-31T09:41:41.516Z,22.30
2022-12-31T09:42:41.593Z,22.44
2022-12-31T09:43:41.523Z,22.54
2022-12-31T09:44:41.596Z,22.69
2022-12-31T09:45:41.552Z,22.84
2022-12-31T09:46:41.459Z,22.91
2022-12-31T09:47:41.437Z,22.82
2022-12-31T09:48:41.470Z,22.30
2022-12-31T09:49:41.520Z,22.33
2022-12-31T09:50:41.432Z,22.46
2022-12-31T09:51:41.393Z,22.26
2022-12-31T09:52:41.402Z,22.11
2022-12-31T09:53:41.395Z,22.14
2022-12-31T09:54:41.397Z,22.12
2022-12-31T09:55:41.337Z,22.39
2022-12-31T09:56:41.420Z,22.35
2022-12-31T09:57:41.336Z,22.12
2022-12-31T09:58:41.337Z,22.15
2022-12-31T09:59:41.392Z,22.24
2022-12-31T10:00:41.335Z,22.31
2022-12-31T10:01:41.428Z,22.12
2022-12-31T10:02:41.569Z,22.04
2022-12-31T10:03:41.280Z,21.81
2022-12-31T10:04:41.281Z,21.98
2022-12-31T10:05:41.409Z,22.02
2022-12-31T10:06:41.254Z,22.39
2022-12-31T10:07:42.497Z,22.41
2022-12-31T10:08:41.211Z,22.54
2022-12-31T10:09:41.228Z,22.48
2022-12-31T10:10:41.283Z,22.75
2022-12-31T10:11:41.176Z,22.66
2022-12-31T10:12:41.158Z,22.39
2022-12-31T10:13:41.217Z,22.36
2022-12-31T10:14:47.142Z,22.46
2022-12-31T10:15:42.252Z,22.56
2022-12-31T10:16:41.194Z,22.69
2022-12-31T10:17:41.141Z,22.75
2022-12-31T10:18:41.109Z,22.67
2022-12-31T10:19:41.129Z,22.60
2022-12-31T10:20:45.331Z,22.76
2022-12-31T10:21:41.106Z,22.91
2022-12-31T10:22:41.063Z,23.12
2022-12-31T10:23:41.056Z,23.25
2022-12-31T10:24:41.072Z,23.35
2022-12-31T10:25:41.051Z,23.09
2022-12-31T10:26:41.025Z,23.14
2022-12-31T10:27:40.995Z,23.23
2022-12-31T10:28:40.985Z,23.56
2022-12-31T10:29:41.079Z,23.50
2022-12-31T10:30:41.002Z,23.63
2022-12-31T10:31:40.979Z,23.18
2022-12-31T10:32:40.953Z,23.12
2022-12-31T10:33:41.044Z,23.15
2022-12-31T10:34:40.956Z,22.99
2022-12-31T10:35:40.920Z,22.66
2022-12-31T10:36:40.902Z,22.69
2022-12-31T10:37:40.909Z,22.64
2022-12-31T10:38:40.886Z,22.35
2022-12-31T10:39:40.986Z,22.20
2022-12-31T10:40:40.868Z,21.94
2022-12-31T10:41:40.863Z,21.91
2022-12-31T10:42:40.947Z,21.79
2022-12-31T10:43:40.858Z,21.79
2022-12-31T10:44:40.824Z,21.86
2022-12-31T10:45:40.814Z,21.94
2022-12-31T10:46:40.805Z,21.79
2022-12-31T10:47:40.901Z,21.81
2022-12-31T10:48:40.784Z,21.94
2022-12-31T10:49:40.762Z,22.02
2022-12-31T10:50:40.759Z,22.41
2022-12-31T10:51:40.803Z,22.21
2022-12-31T10:52:42.163Z,22.41
2022-12-31T10:53:40.760Z,22.49
2022-12-31T10:54:40.742Z,22.42
2022-12-31T10:55:40.705Z,22.33
2022-12-31T10:56:40.683Z,22.31
2022-12-31T10:57:40.707Z,22.27
2022-12-31T10:58:40.726Z,22.29
2022-12-31T10:59:40.766Z,22.09
2022-12-31T11:00:40.646Z,22.17
2022-12-31T11:01:40.750Z,22.35
2022-12-31T11:02:40.841Z,22.35
2022-12-31T11:03:40.675Z,22.41
2022-12-31T11:04:40.612Z,22.49
2022-12-31T11:05:40.601Z,22.64
2022-12-31T11:06:40.585Z,22.49
2022-12-31T11:07:40.575Z,22.67
2022-12-31T11:08:40.622Z,22.76
2022-12-31T11:09:40.565Z,23.01
2022-12-31T11:10:40.536Z,22.97
2022-12-31T11:11:40.599Z,22.74
2022-12-31T11:12:40.555Z,22.69
2022-12-31T11:13:40.517Z,22.63
2022-12-31T11:14:40.527Z,22.67
2022-12-31T11:15:43.952Z,22.64
2022-12-31T11:16:41.469Z,22.66
2022-12-31T11:17:40.461Z,22.76
2022-12-31T11:18:40.512Z,22.76
2022-12-31T11:19:40.481Z,22.64
2022-12-31T11:20:40.530Z,22.56
2022-12-31T11:21:41.827Z,22.61
2022-12-31T11:22:40.411Z,22.78
2022-12-31T11:23:40.487Z,22.66
2022-12-31T11:24:40.418Z,22.46
2022-12-31T11:25:40.367Z,22.61
2022-12-31T11:26:40.444Z,22.63
2022-12-31T11:27:41.809Z,22.66
2022-12-31T11:28:40.353Z,22.74
2022-12-31T11:29:40.354Z,22.78
2022-12-31T11:30:40.435Z,22.72
2022-12-31T11:31:40.308Z,22.63
2022-12-31T11:32:40.291Z,22.64
2022-12-31T11:33:44.076Z,22.81
2022-12-31T11:34:41.336Z,22.91
2022-12-31T11:35:40.266Z,22.91
2022-12-31T11:36:40.268Z,23.04
2022-12-31T11:37:40.249Z,22.91
2022-12-31T11:38:40.228Z,22.72
2022-12-31T11:39:40.249Z,22.75
2022-12-31T11:40:40.196Z,22.75
2022-12-31T11:41:40.195Z,22.79
2022-12-31T11:42:40.248Z,22.88
2022-12-31T11:43:40.171Z,22.72
2022-12-31T11:44:40.171Z,22.70
2022-12-31T11:45:42.266Z,22.46
2022-12-31T11:46:41.172Z,22.44
2022-12-31T11:48:03.911Z,22.20
2022-12-31T11:48:41.124Z,22.21
2022-12-31T11:49:40.126Z,22.06
2022-12-31T11:50:40.109Z,21.79
2022-12-31T11:51:42.100Z,21.68
2022-12-31T11:52:41.076Z,21.42
2022-12-31T11:53:40.076Z,21.28
2022-12-31T11:54:40.084Z,21.21
2022-12-31T11:55:40.149Z,21.24
2022-12-31T11:56:40.051Z,21.21
2022-12-31T11:57:40.029Z,21.24
2022-12-31T11:58:40.029Z,21.24
2022-12-31T11:59:40.069Z,21.30
2022-12-31T12:00:39.988Z,21.33
2022-12-31T12:01:40.060Z,21.36
2022-12-31T12:02:39.992Z,21.30
2022-12-31T12:03:40.150Z,21.15
2022-12-31T12:04:39.964Z,21.03
2022-12-31T12:05:39.990Z,20.97
2022-12-31T12:06:39.911Z,20.96
2022-12-31T12:07:39.949Z,21.06
2022-12-31T12:08:39.917Z,21.06
2022-12-31T12:09:39.954Z,20.94
2022-12-31T12:10:39.879Z,21.01
2022-12-31T12:11:39.875Z,20.94
2022-12-31T12:12:39.879Z,20.98
2022-12-31T12:13:39.872Z,20.88
2022-12-31T12:14:39.886Z,20.98
2022-12-31T12:15:39.831Z,20.93
2022-12-31T12:16:39.825Z,20.85
2022-12-31T12:17:39.849Z,20.94
2022-12-31T12:18:39.806Z,20.90
2022-12-31T12:19:39.811Z,20.94
2022-12-31T12:20:39.797Z,20.93
2022-12-31T12:21:39.815Z,20.96
2022-12-31T12:22:40.505Z,20.78
2022-12-31T12:23:39.728Z,20.82
2022-12-31T12:24:39.732Z,20.93
2022-12-31T12:25:39.718Z,20.98
2022-12-31T12:26:39.710Z,20.79
2022-12-31T12:27:39.841Z,20.73
2022-12-31T12:28:44.133Z,20.63
2022-12-31T12:29:39.660Z,20.64
2022-12-31T12:30:39.678Z,20.68
2022-12-31T12:31:39.792Z,20.51
2022-12-31T12:32:39.781Z,20.53
2022-12-31T12:33:40.154Z,20.50
2022-12-31T12:34:44.451Z,20.48
2022-12-31T12:35:40.600Z,20.37
2022-12-31T12:36:39.583Z,20.35
2022-12-31T12:37:39.618Z,20.38
2022-12-31T12:38:39.584Z,20.37
2022-12-31T12:39:39.587Z,20.17
2022-12-31T12:40:39.564Z,20.23
2022-12-31T12:41:39.944Z,20.15
2022-12-31T12:42:40.022Z,19.94
2022-12-31T12:43:39.527Z,19.90
2022-12-31T12:44:39.526Z,19.85
2022-12-31T12:45:39.487Z,19.85
2022-12-31T12:46:42.579Z,19.85
2022-12-31T12:47:40.489Z,19.85
2022-12-31T12:48:39.467Z,19.82
2022-12-31T12:49:39.501Z,19.85
2022-12-31T12:50:39.821Z,19.83
2022-12-31T12:51:39.770Z,19.85
2022-12-31T12:52:39.406Z,19.75